Abingdon, VA

10:26 PM EDT on August 18, 2017 (GMT -0400)
Virginia Highlands

Weather History for KVJI - November, 2012

Change the Weather History Date:

Monday, November 12, 2012

  Actual Average (KTRI) Record (KTRI)
Temperature  
Mean Temperature 55 °F -  
Max Temperature 68 °F 56 °F 78 °F (1945)
Min Temperature 42 °F 35 °F 19 °F (1996)
Degree Days  
Heating Degree Days 10    
Growing Degree Days 5 (Base 50)    
Moisture  
Dew Point 51 °F    
Average Humidity 73    
Maximum Humidity 100    
Minimum Humidity 56    
Precipitation  
Precipitation 0.37 in - - ()
Sea Level Pressure  
Sea Level Pressure 30.25 in    
Wind  
Wind Speed 10 mph (SW)    
Max Wind Speed 15 mph    
Max Gust Speed 26 mph    
Visibility 9 miles    
Events Rain    
Averages and records for this station are not official NWS values.
T = Trace of Precipitation, MM = Missing Value Source: NWS Daily Summary

Daily Weather History Graph

Daily Weather History Graph

Search for Another Location

Airport or City:

Trip Planner

Search our weather history database for the weather conditions in past years. The results will help you decide how hot, cold, wet, or windy it might be!

Date:

Astronomy

Nov. 12, 2012 Rise Set
Actual Time 7:03 AM EST 5:20 PM EST
Civil Twilight 6:36 AM EST 5:48 PM EST
Nautical Twilight 6:04 AM EST 6:19 PM EST
Astronomical Twilight 5:34 AM EST 6:49 PM EST
Moon 5:28 AM EST (11/12) 4:24 PM EST (11/12)
Length of Visible Light 11h 12m
Length of Day
10h 17m
Waning Crescent, 2% of the Moon is Illuminated
Nov 12
Waning Crescent
Nov 13
New
Nov 20
First Quarter
Nov 28
Full
Dec 6
Last Quarter

Hourly Weather History & Observations

Time (EST) Temp. Windchill Dew Point Humidity Pressure Visibility Wind Dir Wind Speed Gust Speed Precip Events Conditions
12:15 AM 63.9 °F - 50.2 °F 61% 30.32 in 10.0 mi SSW 8.1 mph - N/A   Mostly Cloudy
12:35 AM 64.0 °F - 50.5 °F 61% 30.31 in 10.0 mi SW 13.8 mph 20.7 mph N/A   Overcast
12:55 AM 64.6 °F - 50.5 °F 60% 30.30 in 10.0 mi SSW 10.4 mph - N/A   Overcast
1:15 AM 64.6 °F - 50.9 °F 61% 30.30 in 10.0 mi South 13.8 mph 21.9 mph N/A   Overcast
1:35 AM 64.9 °F - 50.9 °F 60% 30.29 in 10.0 mi SSW 8.1 mph 20.7 mph N/A   Overcast
1:55 AM 64.8 °F - 50.9 °F 61% 30.29 in 10.0 mi SSW 13.8 mph 19.6 mph N/A   Overcast
2:15 AM 64.8 °F - 51.1 °F 61% 30.28 in 10.0 mi SSW 11.5 mph - N/A   Overcast
2:35 AM 64.4 °F - 51.4 °F 63% 30.28 in 10.0 mi SW 11.5 mph 16.1 mph N/A   Overcast
2:55 AM 64.4 °F - 51.8 °F 64% 30.29 in 10.0 mi SW 11.5 mph 18.4 mph N/A   Overcast
3:15 AM 64.4 °F - 52.0 °F 64% 30.28 in 10.0 mi SW 12.7 mph 17.3 mph N/A   Overcast
3:35 AM 64.4 °F - 51.8 °F 64% 30.28 in 10.0 mi SW 11.5 mph 18.4 mph N/A   Overcast
3:55 AM 64.4 °F - 51.8 °F 64% 30.27 in 10.0 mi SSW 13.8 mph 21.9 mph N/A   Overcast
4:35 AM 64.4 °F - 51.4 °F 63% 30.26 in 10.0 mi SSW 6.9 mph - N/A   Overcast
4:55 AM 64.6 °F - 52.2 °F 64% 30.25 in 10.0 mi South 15.0 mph 21.9 mph N/A   Overcast
5:15 AM 64.6 °F - 52.3 °F 64% 30.26 in 10.0 mi SSW 12.7 mph 17.3 mph N/A   Overcast
5:35 AM 64.8 °F - 51.8 °F 63% 30.25 in 10.0 mi SW 13.8 mph 21.9 mph N/A   Overcast
5:55 AM 64.4 °F - 51.6 °F 63% 30.25 in 10.0 mi South 10.4 mph 19.6 mph N/A   Overcast
6:15 AM 64.4 °F - 51.4 °F 63% 30.25 in 10.0 mi SSW 12.7 mph 23.0 mph N/A   Overcast
6:35 AM 64.4 °F - 51.3 °F 62% 30.25 in 10.0 mi SSW 13.8 mph 26.5 mph N/A   Overcast
7:15 AM 64.0 °F - 51.4 °F 64% 30.25 in 10.0 mi SW 8.1 mph 19.6 mph N/A   Overcast
7:35 AM 63.7 °F - 51.8 °F 65% 30.26 in 10.0 mi SSW 10.4 mph 17.3 mph N/A   Overcast
7:55 AM 64.0 °F - 51.3 °F 63% 30.27 in 10.0 mi SSW 9.2 mph 17.3 mph N/A   Overcast
8:15 AM 64.2 °F - 51.1 °F 62% 30.28 in 10.0 mi SSW 15.0 mph 20.7 mph N/A   Mostly Cloudy
8:35 AM 64.6 °F - 51.3 °F 62% 30.28 in 10.0 mi SSW 15.0 mph 20.7 mph N/A   Overcast
8:55 AM 64.8 °F - 51.6 °F 62% 30.28 in 10.0 mi SSW 13.8 mph 20.7 mph N/A   Overcast
9:15 AM 65.3 °F - 51.8 °F 62% 30.28 in 10.0 mi SW 10.4 mph - N/A   Overcast
9:55 AM 66.2 °F - 51.1 °F 58% 30.29 in 10.0 mi SW 11.5 mph - N/A   Overcast
10:15 AM 65.5 °F - 51.4 °F 60% 30.28 in 10.0 mi SSW 9.2 mph - N/A   Overcast
10:35 AM 65.3 °F - 51.4 °F 61% 30.28 in 10.0 mi SSW 10.4 mph - N/A   Overcast
10:55 AM 66.2 °F - 51.8 °F 60% 30.27 in 10.0 mi SSW 9.2 mph - N/A   Overcast
11:15 AM 66.2 °F - 51.3 °F 59% 30.25 in 10.0 mi South 11.5 mph 19.6 mph N/A   Mostly Cloudy
11:55 AM 66.7 °F - 51.1 °F 57% 30.22 in 10.0 mi SW 10.4 mph - N/A   Scattered Clouds
12:15 PM 67.3 °F - 51.3 °F 56% 30.20 in 10.0 mi SSW 8.1 mph - N/A   Mostly Cloudy
12:55 PM 67.5 °F - 52.5 °F 59% 30.17 in 10.0 mi SSW 15.0 mph 19.6 mph N/A   Mostly Cloudy
1:15 PM 67.3 °F - 52.2 °F 58% 30.16 in 10.0 mi SW 13.8 mph - N/A   Mostly Cloudy
1:35 PM 67.5 °F - 52.2 °F 58% 30.16 in 10.0 mi SW 10.4 mph 19.6 mph N/A   Scattered Clouds
1:55 PM 68.0 °F - 52.3 °F 57% 30.15 in 10.0 mi SSW 11.5 mph 16.1 mph N/A   Scattered Clouds
2:15 PM 68.0 °F - 52.2 °F 57% 30.15 in 10.0 mi SSW 9.2 mph 16.1 mph N/A   Scattered Clouds
2:35 PM 68.0 °F - 52.7 °F 58% 30.15 in 10.0 mi SW 8.1 mph - N/A   Scattered Clouds
2:55 PM 67.1 °F - 53.2 °F 61% 30.14 in 10.0 mi SW 6.9 mph - N/A Rain Light Rain
3:15 PM 66.6 °F - 53.4 °F 63% 30.14 in 10.0 mi SW 6.9 mph - N/A Rain Light Rain
3:35 PM 66.2 °F - 54.0 °F 65% 30.14 in 10.0 mi Calm Calm - N/A Rain Light Rain
3:55 PM 64.8 °F - 54.9 °F 70% 30.15 in 10.0 mi WSW 5.8 mph - N/A Rain Light Rain
4:15 PM 64.4 °F - 54.1 °F 69% 30.17 in 10.0 mi WSW 8.1 mph - N/A Rain Light Rain
4:55 PM 61.9 °F - 56.8 °F 84% 30.18 in 10.0 mi West 5.8 mph - 0.02 in Rain Light Rain
5:15 PM 61.2 °F - 57.4 °F 87% 30.18 in 10.0 mi NW 8.1 mph - N/A Rain Light Rain
5:35 PM 59.5 °F - 58.1 °F 95% 30.19 in 7.0 mi West 4.6 mph - 0.03 in Rain Rain
5:55 PM 59.0 °F - 58.3 °F 97% 30.19 in 7.0 mi Calm Calm - 0.04 in Rain Light Rain
6:15 PM 58.5 °F - 58.5 °F 100% 30.19 in 7.0 mi Calm Calm - 0.01 in Rain Rain
6:35 PM 58.3 °F - 58.3 °F 100% 30.18 in 5.0 mi Calm Calm - 0.04 in Rain Rain
6:55 PM 54.0 °F - 53.2 °F 97% 30.21 in 5.0 mi NNW 8.1 mph 17.3 mph 0.11 in Rain Rain
7:15 PM 51.6 °F - 51.1 °F 98% 30.21 in 5.0 mi North 11.5 mph 19.6 mph 0.06 in Rain Light Rain
7:35 PM 50.5 °F - 50.2 °F 99% 30.22 in 4.0 mi North 10.4 mph 16.1 mph 0.09 in Rain Light Rain
7:55 PM 50.9 °F - 49.3 °F 94% 30.23 in 5.0 mi North 9.2 mph 20.7 mph 0.10 in   Light Drizzle
8:15 PM 49.6 °F - 48.6 °F 96% 30.26 in 3.0 mi NNW 12.7 mph 19.6 mph 0.01 in   Drizzle
8:35 PM 48.0 °F - 46.8 °F 95% 30.27 in 5.0 mi NNW 6.9 mph 18.4 mph 0.01 in Rain Light Rain
8:55 PM 47.3 °F - 46.8 °F 98% 30.28 in 4.0 mi NNW 5.8 mph - 0.04 in Rain Rain
9:15 PM 46.9 °F - 46.4 °F 98% 30.29 in 10.0 mi North 5.8 mph 10.4 mph 0.01 in Rain Light Rain
9:35 PM 46.2 °F 40.5 °F 44.8 °F 95% 30.31 in 10.0 mi NNW 12.7 mph 17.3 mph 0.01 in   Drizzle
9:55 PM 45.3 °F 40.1 °F 43.2 °F 92% 30.31 in 7.0 mi NNW 10.4 mph 18.4 mph 0.02 in Rain Light Rain
10:15 PM 44.6 °F 41.4 °F 42.8 °F 93% 30.31 in 10.0 mi North 5.8 mph - N/A Rain Light Rain
10:35 PM 44.1 °F 40.8 °F 42.8 °F 95% 30.31 in 10.0 mi North 5.8 mph - 0.01 in   Light Drizzle
10:55 PM 43.7 °F 42.1 °F 42.1 °F 94% 30.32 in 10.0 mi NNW 3.5 mph - 0.03 in Rain Light Rain
11:15 PM 42.8 °F - 40.8 °F 93% 30.32 in 10.0 mi Calm Calm - 0.01 in   Light Drizzle
11:35 PM 42.6 °F 39.9 °F 40.5 °F 92% 30.32 in 10.0 mi West 4.6 mph - 0.01 in   Overcast
11:55 PM 42.4 °F 40.7 °F 40.1 °F 91% 30.33 in 10.0 mi WNW 3.5 mph - 0.01 in   Overcast